Time;durP1;ratioP1;P1;durP2;ratioP2;P2;SDS_P1;SDS_P2;PMS_P1;PMS_P2;Temp;Humidity;BMP_temperature;BMP_pressure;BME280_temperature;BME280_humidity;BME280_pressure;Samples;Min_cycle;Max_cycle;Signal;HPM_P1;HPM_P2
2022/06/27 00:00:55;;;;;;;3.40;2.37;;;;;;;23.37;55.39;99798.62;4329354;33;34723;-74
2022/06/27 00:03:41;;;;;;;4.45;2.58;;;;;;;23.08;56.07;99804.94;4329548;33;34664;-74
2022/06/27 00:06:28;;;;;;;5.30;2.50;;;;;;;23.12;56.47;99797.34;4333462;33;34171;-74
2022/06/27 00:09:14;;;;;;;7.05;2.75;;;;;;;23.21;56.74;99797.00;4343814;33;34686;-74
2022/06/27 00:12:01;;;;;;;5.12;2.75;;;;;;;23.13;57.42;99800.94;4329529;33;34966;-73
2022/06/27 00:14:48;;;;;;;5.43;3.85;;;;;;;22.85;58.03;99804.34;4318254;33;35536;-74
2022/06/27 00:17:34;;;;;;;5.12;2.55;;;;;;;22.63;58.69;99807.03;4329511;33;35616;-74
2022/06/27 00:20:21;;;;;;;6.75;2.75;;;;;;;22.29;60.31;99800.78;4337165;33;34444;-74
2022/06/27 00:23:07;;;;;;;4.82;2.70;;;;;;;21.14;65.55;99811.84;4324483;33;35019;-73
2022/06/27 00:25:54;;;;;;;3.85;2.22;;;;;;;21.44;63.61;99807.09;4343152;33;34202;-74
2022/06/27 00:28:40;;;;;;;4.07;2.30;;;;;;;21.48;63.00;99809.91;4343304;33;34188;-74
2022/06/27 00:31:27;;;;;;;4.10;2.78;;;;;;;20.87;66.12;99811.88;4339534;33;34680;-74
2022/06/27 00:34:13;;;;;;;4.87;2.45;;;;;;;21.35;65.02;99814.91;4343511;33;36026;-74
2022/06/27 00:37:00;;;;;;;4.43;2.30;;;;;;;22.07;61.56;99804.53;4317623;33;34389;-74
2022/06/27 00:39:46;;;;;;;4.03;2.40;;;;;;;22.25;60.89;99807.50;4329475;33;34452;-73
2022/06/27 00:42:34;;;;;;;3.28;2.40;;;;;;;22.36;60.03;99805.63;4319855;33;34694;-73
2022/06/27 00:45:22;;;;;;;3.22;2.40;;;;;;;22.17;60.84;99801.88;4322410;33;34874;-74
2022/06/27 00:48:09;;;;;;;4.18;2.65;;;;;;;22.32;60.65;99804.81;4324298;33;35084;-74
2022/06/27 00:50:56;;;;;;;3.65;2.62;;;;;;;22.17;60.98;99809.41;4322630;33;34755;-74
2022/06/27 00:53:43;;;;;;;6.15;2.70;;;;;;;21.99;62.02;99803.66;4335966;33;34778;-74
2022/06/27 00:56:29;;;;;;;4.10;2.30;;;;;;;21.94;61.62;99813.22;4326767;32;34999;-74
2022/06/27 00:59:16;;;;;;;4.05;2.42;;;;;;;22.19;61.08;99812.66;4328306;33;33996;-74
2022/06/27 01:02:03;;;;;;;7.20;2.60;;;;;;;22.37;60.20;99812.78;4331402;33;33036;-73
2022/06/27 01:04:49;;;;;;;5.55;2.80;;;;;;;22.08;61.09;99814.50;4331421;33;34688;-73
2022/06/27 01:07:37;;;;;;;4.05;2.60;;;;;;;21.80;62.68;99824.22;4329449;33;34500;-74
2022/06/27 01:10:23;;;;;;;3.40;2.60;;;;;;;22.14;61.76;99821.34;4330169;33;34250;-73
2022/06/27 01:13:10;;;;;;;3.70;2.45;;;;;;;22.07;61.84;99832.44;4333802;33;33857;-73
2022/06/27 01:15:57;;;;;;;5.50;2.60;;;;;;;21.52;64.28;99825.50;4327756;33;34783;-73
2022/06/27 01:18:43;;;;;;;3.47;2.22;;;;;;;21.68;63.85;99830.03;4325437;33;35977;-74
2022/06/27 01:21:31;;;;;;;5.50;2.65;;;;;;;22.01;62.59;99821.62;4326514;33;34651;-74
2022/06/27 01:24:18;;;;;;;2.80;2.40;;;;;;;22.12;61.94;99812.56;4332220;33;35111;-74
2022/06/27 01:27:06;;;;;;;5.00;2.72;;;;;;;22.02;62.09;99823.22;4327583;33;34629;-74
2022/06/27 01:29:52;;;;;;;3.70;2.50;;;;;;;21.80;63.11;99813.06;4317693;33;36025;-74
2022/06/27 01:32:39;;;;;;;3.78;2.45;;;;;;;21.82;63.29;99816.25;4329071;33;35005;-74
2022/06/27 01:35:26;;;;;;;4.30;2.62;;;;;;;21.42;64.74;99814.22;4332190;33;34459;-74
2022/06/27 01:38:12;;;;;;;4.12;2.53;;;;;;;21.27;65.93;99814.00;4343309;33;34289;-74
2022/06/27 01:40:59;;;;;;;6.68;2.50;;;;;;;21.69;64.50;99817.72;4332396;33;34511;-73
2022/06/27 01:43:47;;;;;;;4.15;2.70;;;;;;;21.04;66.86;99816.09;4339455;33;34650;-73
2022/06/27 01:46:59;;;;;;;4.47;2.55;;;;;;;19.97;73.36;99806.84;4332268;33;33776;-74
2022/06/27 01:49:46;;;;;;;6.57;2.53;;;;;;;20.61;70.18;99816.28;4342596;33;34629;-73
2022/06/27 01:52:34;;;;;;;4.95;3.15;;;;;;;20.81;68.79;99821.75;4326114;33;34929;-73
2022/06/27 01:55:24;;;;;;;4.05;2.47;;;;;;;20.84;69.25;99818.22;4342889;33;35605;-74
2022/06/27 01:58:11;;;;;;;5.87;2.62;;;;;;;21.30;67.04;99818.03;4330362;33;34046;-73
2022/06/27 02:00:57;;;;;;;3.92;2.62;;;;;;;20.77;68.87;99818.09;4333200;33;34710;-73
2022/06/27 02:03:43;;;;;;;5.40;2.95;;;;;;;20.40;70.16;99813.13;4334882;33;36052;-73
2022/06/27 02:06:30;;;;;;;4.93;2.53;;;;;;;20.53;70.82;99828.47;4331506;33;34040;-74
2022/06/27 02:09:16;;;;;;;5.80;2.67;;;;;;;20.70;69.88;99820.78;4342897;33;34244;-73
2022/06/27 02:12:18;;;;;;;4.28;2.60;;;;;;;;;;4332119;33;34484;-73
2022/06/27 02:15:06;;;;;;;5.55;2.42;;;;;;;21.12;67.83;99824.19;4328889;33;34945;-73
2022/06/27 02:17:52;;;;;;;5.78;2.60;;;;;;;21.37;66.38;99829.28;4317287;33;34963;-73
2022/06/27 02:20:39;;;;;;;4.30;2.40;;;;;;;21.43;66.22;99827.78;4331601;33;33657;-73
2022/06/27 02:23:26;;;;;;;6.75;2.72;;;;;;;21.41;66.18;99827.34;4343202;33;34689;-73
2022/06/27 02:26:15;;;;;;;4.00;2.70;;;;;;;21.25;66.96;99833.09;4320022;33;35454;-73
2022/06/27 02:29:02;;;;;;;4.78;2.53;;;;;;;20.93;68.31;99826.28;4331891;33;34960;-73
2022/06/27 02:31:50;;;;;;;5.68;2.90;;;;;;;20.82;69.07;99828.91;4317110;33;35848;-74
2022/06/27 02:34:38;;;;;;;5.32;3.10;;;;;;;20.52;70.93;99826.84;4331618;33;34612;-73
2022/06/27 02:37:25;;;;;;;6.57;3.30;;;;;;;20.31;72.39;99826.50;4331863;33;34927;-74
2022/06/27 02:40:12;;;;;;;5.72;2.75;;;;;;;20.22;73.14;99835.09;4331321;33;34241;-73
2022/06/27 02:42:59;;;;;;;5.05;2.75;;;;;;;20.30;72.63;99844.38;4331673;33;33878;-74
2022/06/27 02:45:46;;;;;;;6.62;3.17;;;;;;;20.26;72.90;99832.38;4331199;33;34694;-73
2022/06/27 02:48:33;;;;;;;6.35;3.20;;;;;;;19.75;75.66;99837.03;4337005;33;36132;-73
2022/06/27 02:51:23;;;;;;;4.30;2.72;;;;;;;19.94;74.83;99838.97;4342950;33;34149;-73
2022/06/27 02:54:21;;;;;;;5.82;3.35;;;;;;;19.94;75.23;99843.72;4329393;33;33695;-73
2022/06/27 02:57:26;;;;;;;6.40;3.25;;;;;;;19.37;78.99;99842.59;4319593;33;34787;-73
2022/06/27 03:00:14;;;;;;;5.32;2.90;;;;;;;20.02;75.55;99842.69;4319460;33;34529;-74
2022/06/27 03:03:00;;;;;;;7.10;3.25;;;;;;;19.19;78.13;99848.56;4330856;33;34264;-73
2022/06/27 03:06:04;;;;;;;6.47;3.28;;;;;;;18.06;88.15;99855.75;4326369;33;34992;-73
2022/06/27 03:08:50;;;;;;;6.07;3.37;;;;;;;17.79;91.53;99857.38;4338518;33;35876;-74
2022/06/27 03:11:38;;;;;;;6.57;3.55;;;;;;;19.02;83.13;99865.66;4320102;33;35934;-74
2022/06/27 03:14:24;;;;;;;5.32;3.08;;;;;;;19.20;83.47;99863.25;4341950;33;35231;-73
2022/06/27 03:17:10;;;;;;;5.95;2.62;;;;;;;19.25;82.63;99868.53;4341258;33;34170;-73
2022/06/27 03:20:00;;;;;;;6.03;3.50;;;;;;;19.51;82.17;99870.66;4325981;33;34227;-74
2022/06/27 03:22:47;;;;;;;6.28;3.72;;;;;;;19.72;79.71;99876.72;4342233;33;34938;-74
2022/06/27 03:25:34;;;;;;;6.57;3.72;;;;;;;19.88;80.57;99875.81;4341437;33;35306;-74
2022/06/27 03:28:21;;;;;;;6.20;3.28;;;;;;;20.49;76.80;99874.94;4327498;33;34327;-74
2022/06/27 03:31:08;;;;;;;4.85;3.30;;;;;;;20.29;77.47;99871.41;4316816;33;36053;-74
2022/06/27 03:33:56;;;;;;;5.05;3.42;;;;;;;20.44;75.90;99869.66;4330079;33;34914;-73
2022/06/27 03:36:44;;;;;;;5.68;3.47;;;;;;;19.91;78.29;99880.63;4320934;33;34557;-73
2022/06/27 03:39:32;;;;;;;8.07;3.40;;;;;;;19.94;77.05;99882.66;4332690;33;34135;-74
2022/06/27 03:42:18;;;;;;;8.90;3.05;;;;;;;20.61;73.52;99876.72;4320076;33;34382;-74
2022/06/27 03:45:05;;;;;;;5.70;3.12;;;;;;;20.53;73.36;99884.16;4327881;32;34574;-75
2022/06/27 03:47:56;;;;;;;9.45;3.70;;;;;;;20.05;75.11;99872.56;4316525;33;34543;-75
2022/06/27 03:50:50;;;;;;;5.15;3.50;;;;;;;19.89;76.47;99877.41;4320220;32;33715;-75
2022/06/27 03:53:37;;;;;;;4.68;2.97;;;;;;;19.87;76.02;99885.31;4342057;33;34692;-75
2022/06/27 03:56:23;;;;;;;7.82;3.10;;;;;;;20.52;73.85;99882.53;4341948;33;35062;-75
2022/06/27 03:59:10;;;;;;;5.28;3.45;;;;;;;20.75;73.33;99884.50;4327667;33;34187;-75
2022/06/27 04:01:56;;;;;;;6.32;3.47;;;;;;;20.88;73.55;99883.91;4329549;32;35206;-75
2022/06/27 04:04:45;;;;;;;4.30;3.05;;;;;;;19.94;76.90;99882.66;4329855;33;33896;-75
2022/06/27 04:07:31;;;;;;;6.10;3.50;;;;;;;20.35;75.92;99883.00;4334525;33;36874;-75
2022/06/27 04:10:17;;;;;;;5.35;3.00;;;;;;;21.30;73.44;99891.28;4319869;33;34538;-75
2022/06/27 04:13:04;;;;;;;5.70;3.58;;;;;;;20.81;74.51;99896.94;4316457;33;34693;-75
2022/06/27 04:15:53;;;;;;;6.95;3.47;;;;;;;21.27;74.06;99899.59;4325936;33;34022;-75
2022/06/27 04:18:41;;;;;;;6.55;3.20;;;;;;;20.95;74.81;99897.16;4327004;33;34941;-75
2022/06/27 04:21:32;;;;;;;5.12;3.35;;;;;;;21.46;73.64;99893.09;4328745;33;34849;-75
2022/06/27 04:24:20;;;;;;;8.02;3.42;;;;;;;21.81;71.58;99908.69;4325688;32;35115;-75
2022/06/27 04:27:09;;;;;;;6.43;3.40;;;;;;;21.39;71.91;99904.97;4328475;33;34570;-75
2022/06/27 04:29:56;;;;;;;8.18;3.50;;;;;;;21.83;70.35;99909.91;4333702;32;35057;-74
2022/06/27 04:32:44;;;;;;;5.07;3.05;;;;;;;22.11;69.48;99908.63;4308611;33;34663;-74
2022/06/27 04:35:31;;;;;;;6.43;3.45;;;;;;;22.25;68.87;99908.78;4332721;33;34079;-75
2022/06/27 04:38:19;;;;;;;5.00;2.87;;;;;;;22.39;66.76;99914.50;4343787;33;35653;-75
2022/06/27 04:41:07;;;;;;;10.38;3.42;;;;;;;22.19;68.12;99913.91;4321741;33;34474;-75
2022/06/27 04:43:55;;;;;;;5.60;3.08;;;;;;;22.48;67.82;99916.97;4341587;33;34177;-75
2022/06/27 04:46:43;;;;;;;7.53;3.30;;;;;;;22.68;65.49;99907.22;4329234;33;33763;-74
2022/06/27 04:49:33;;;;;;;5.80;3.22;;;;;;;23.06;64.21;99904.31;4343203;33;34707;-75
2022/06/27 04:52:19;;;;;;;5.53;2.90;;;;;;;23.12;64.44;99902.75;4340648;33;35634;-75
2022/06/27 04:55:09;;;;;;;5.25;3.33;;;;;;;22.87;64.53;99903.34;4343776;33;35479;-75
2022/06/27 04:57:55;;;;;;;8.10;3.33;;;;;;;23.00;64.05;99906.69;4307897;33;35041;-75
2022/06/27 05:00:42;;;;;;;7.50;3.30;;;;;;;23.09;64.55;99906.34;4335862;32;35564;-75
2022/06/27 05:03:29;;;;;;;4.07;2.90;;;;;;;23.25;62.22;99912.44;4322389;33;34979;-74
2022/06/27 05:06:17;;;;;;;4.55;2.75;;;;;;;23.00;63.89;99912.25;4334601;33;35430;-75
2022/06/27 05:09:03;;;;;;;6.35;2.90;;;;;;;23.07;62.95;99917.09;4332292;33;34176;-75
2022/06/27 05:11:52;;;;;;;3.55;3.00;;;;;;;23.21;62.05;99917.19;4343685;33;34827;-75
2022/06/27 05:14:39;;;;;;;4.93;2.92;;;;;;;23.38;61.64;99909.28;4343544;33;33762;-75
2022/06/27 05:17:26;;;;;;;8.73;3.30;;;;;;;23.64;61.29;99917.41;4336890;33;34794;-75
2022/06/27 05:20:12;;;;;;;5.87;2.80;;;;;;;23.42;61.74;99916.50;4331627;33;34395;-74
2022/06/27 05:23:02;;;;;;;5.05;3.03;;;;;;;23.84;60.42;99917.13;4329708;33;34759;-75
2022/06/27 05:25:48;;;;;;;5.97;3.37;;;;;;;23.65;60.62;99916.22;4317601;33;35037;-74
2022/06/27 05:28:35;;;;;;;6.15;3.50;;;;;;;23.84;60.01;99908.72;4328568;33;34545;-75
2022/06/27 05:31:22;;;;;;;6.00;3.20;;;;;;;24.04;59.78;99912.78;4325216;33;34255;-75
2022/06/27 05:34:08;;;;;;;5.62;3.00;;;;;;;24.39;59.46;99912.06;4329206;33;35564;-75
2022/06/27 05:36:55;;;;;;;4.75;3.28;;;;;;;24.38;58.24;99915.25;4337243;33;35791;-75
2022/06/27 05:39:44;;;;;;;6.37;4.32;;;;;;;24.12;59.02;99908.81;4340507;33;35500;-75
2022/06/27 05:42:32;;;;;;;6.50;3.40;;;;;;;24.43;57.22;99912.09;4334353;33;92133;-74
2022/06/27 05:45:20;;;;;;;4.50;3.20;;;;;;;24.47;57.39;99910.09;4328677;33;35440;-75
2022/06/27 05:48:08;;;;;;;6.85;3.80;;;;;;;24.52;58.01;99912.50;4331670;33;34933;-75
2022/06/27 05:50:56;;;;;;;5.10;3.35;;;;;;;24.33;58.73;99915.63;4343273;33;35446;-75
2022/06/27 05:53:43;;;;;;;7.25;3.87;;;;;;;24.43;57.49;99918.50;4343168;33;34737;-74
2022/06/27 05:56:30;;;;;;;7.60;3.20;;;;;;;24.42;57.51;99916.06;4337907;33;34365;-74
2022/06/27 05:59:17;;;;;;;6.40;3.30;;;;;;;24.64;56.18;99920.50;4342995;33;35928;-75
2022/06/27 06:02:04;;;;;;;5.72;4.18;;;;;;;24.88;56.64;99916.09;4331699;33;35581;-74
2022/06/27 06:04:52;;;;;;;5.75;3.60;;;;;;;24.74;56.93;99926.53;4338435;33;34042;-75
2022/06/27 06:07:38;;;;;;;6.78;3.97;;;;;;;24.96;55.59;99924.50;4318275;33;34666;-75
2022/06/27 06:10:26;;;;;;;5.70;3.37;;;;;;;24.38;58.32;99934.84;4333454;33;35664;-75
2022/06/27 06:13:13;;;;;;;6.75;3.75;;;;;;;24.76;56.96;99936.12;4335787;33;35773;-75
2022/06/27 06:16:00;;;;;;;7.90;4.00;;;;;;;24.84;56.03;99939.72;4330649;33;34945;-76
2022/06/27 06:18:52;;;;;;;7.68;3.85;;;;;;;25.15;55.26;99934.53;4336473;33;34264;-75
2022/06/27 06:21:39;;;;;;;6.93;3.55;;;;;;;25.42;54.35;99937.69;4334238;33;35560;-78
2022/06/27 06:24:26;;;;;;;6.15;3.92;;;;;;;25.31;55.09;99937.72;4335391;33;34149;-79
2022/06/27 06:27:19;;;;;;;6.85;3.92;;;;;;;25.37;54.41;99941.69;4322684;33;34153;-78
2022/06/27 06:30:07;;;;;;;5.82;3.90;;;;;;;25.75;54.29;99947.59;4339367;33;34719;-78
2022/06/27 06:32:55;;;;;;;7.70;4.22;;;;;;;25.86;53.09;99944.78;4333727;33;34682;-79
2022/06/27 06:35:42;;;;;;;8.25;4.25;;;;;;;25.62;54.46;99952.06;4334966;33;34619;-79
2022/06/27 06:38:29;;;;;;;6.28;3.92;;;;;;;25.93;53.42;99951.16;4329178;33;33689;-80
2022/06/27 06:41:16;;;;;;;6.57;4.07;;;;;;;25.83;53.43;99951.19;4336156;33;35638;-79
2022/06/27 06:44:05;;;;;;;10.07;4.37;;;;;;;26.12;53.00;99951.84;4326166;33;35295;-79
2022/06/27 06:46:54;;;;;;;8.57;4.20;;;;;;;26.27;52.86;99952.56;4322676;33;34597;-82
2022/06/27 06:49:43;;;;;;;7.00;3.93;;;;;;;25.99;52.93;99949.53;4318259;33;34157;-78
2022/06/27 06:52:30;;;;;;;8.13;4.25;;;;;;;26.28;53.14;99952.19;4342495;33;34956;-79
2022/06/27 06:55:24;;;;;;;6.70;4.30;;;;;;;26.48;52.01;99956.06;4341851;33;34590;-80
2022/06/27 06:58:11;;;;;;;7.85;3.90;;;;;;;26.64;51.78;99949.13;4321045;33;34569;-82
2022/06/27 07:00:58;;;;;;;9.85;4.22;;;;;;;26.43;51.72;99956.47;4336286;33;34150;-79
2022/06/27 07:03:44;;;;;;;11.35;4.50;;;;;;;26.65;51.45;99947.94;4335174;33;34649;-81
2022/06/27 07:06:32;;;;;;;8.68;4.85;;;;;;;26.72;52.11;99949.91;4338992;32;35073;-79
2022/06/27 07:09:18;;;;;;;9.98;4.40;;;;;;;26.94;50.17;99956.94;4339613;33;35741;-80
2022/06/27 07:12:05;;;;;;;7.55;4.95;;;;;;;26.91;50.03;99958.56;4318633;33;33865;-79
2022/06/27 07:14:54;;;;;;;11.00;5.82;;;;;;;26.75;50.19;99955.47;4330915;33;35522;-78
2022/06/27 07:17:43;;;;;;;10.82;4.80;;;;;;;26.95;52.01;99952.12;4328857;33;35049;-80
2022/06/27 07:20:30;;;;;;;8.55;4.45;;;;;;;27.28;49.43;99957.06;4332837;33;34248;-79
2022/06/27 07:23:17;;;;;;;9.38;4.65;;;;;;;27.14;50.40;99951.53;4334373;33;36964;-79
2022/06/27 07:26:03;;;;;;;8.82;4.57;;;;;;;27.40;50.72;99950.09;4334575;33;33453;-78
2022/06/27 07:28:51;;;;;;;9.15;4.90;;;;;;;27.76;48.41;99942.06;4332646;33;35802;-80
2022/06/27 07:31:37;;;;;;;14.00;4.68;;;;;;;27.53;48.98;99953.97;4320631;33;34644;-80
2022/06/27 07:34:25;;;;;;;9.73;5.20;;;;;;;27.66;48.21;99951.41;4331189;33;34260;-78
2022/06/27 07:37:12;;;;;;;7.20;4.70;;;;;;;27.57;50.02;99954.72;4321741;33;34565;-80
2022/06/27 07:39:59;;;;;;;9.05;4.78;;;;;;;27.59;49.57;99952.28;4331241;33;35596;-81
2022/06/27 07:42:45;;;;;;;6.62;4.65;;;;;;;27.65;48.24;99954.66;4322170;33;34195;-79
2022/06/27 07:45:38;;;;;;;13.57;4.80;;;;;;;27.53;48.83;99956.78;4323456;33;34119;-80
2022/06/27 07:48:25;;;;;;;12.02;4.43;;;;;;;27.98;47.73;99955.91;4338137;33;34650;-80
2022/06/27 07:51:16;;;;;;;7.45;3.97;;;;;;;28.22;47.70;99968.03;4318747;33;35976;-79
2022/06/27 07:54:02;;;;;;;6.65;4.60;;;;;;;27.98;48.33;99965.16;4329341;33;35242;-79
2022/06/27 07:56:49;;;;;;;7.57;4.80;;;;;;;28.20;46.81;99962.81;4321087;33;34145;-80
2022/06/27 07:59:48;;;;;;;6.72;4.37;;;;;;;28.51;46.12;99973.28;4334844;33;34690;-79
2022/06/27 08:02:34;;;;;;;8.00;4.85;;;;;;;28.73;45.57;99965.31;4337740;33;34132;-79
2022/06/27 08:05:21;;;;;;;7.93;4.55;;;;;;;28.69;46.95;99971.00;4334248;33;34851;-80
2022/06/27 08:08:08;;;;;;;5.97;4.35;;;;;;;28.66;46.57;99974.66;4339774;33;33942;-80
2022/06/27 08:10:55;;;;;;;7.60;4.68;;;;;;;28.84;44.92;99978.00;4322355;33;34150;-83
2022/06/27 08:13:43;;;;;;;9.80;4.53;;;;;;;28.70;44.37;99978.25;4322654;33;35023;-81
2022/06/27 08:16:30;;;;;;;5.87;4.45;;;;;;;28.95;45.52;99968.59;4332984;33;34745;-80
2022/06/27 08:19:18;;;;;;;8.68;4.55;;;;;;;29.12;44.88;99973.94;4335213;33;34058;-81
2022/06/27 08:22:06;;;;;;;6.82;4.47;;;;;;;29.28;43.75;99970.41;4333087;33;34594;-83
2022/06/27 08:24:52;;;;;;;7.95;4.47;;;;;;;28.43;44.16;99969.78;4333592;33;36066;-80
2022/06/27 08:27:38;;;;;;;7.55;4.97;;;;;;;29.08;43.78;99970.37;4320525;33;34619;-80
2022/06/27 08:30:25;;;;;;;7.57;4.07;;;;;;;29.49;44.22;99974.88;4321134;33;35055;-80
2022/06/27 08:33:13;;;;;;;8.02;4.50;;;;;;;29.85;41.84;99985.50;4334844;33;34888;-80
2022/06/27 08:35:59;;;;;;;6.43;4.12;;;;;;;30.01;41.83;99979.91;4324216;33;36489;-81
2022/06/27 08:38:50;;;;;;;10.15;4.43;;;;;;;29.72;41.33;99991.00;4320047;33;33259;-80
2022/06/27 08:41:37;;;;;;;;;;;;;;;30.06;41.14;99980.66;4334692;33;33677;-80
2022/06/27 08:44:28;;;;;;;7.40;4.50;;;;;;;30.17;40.68;99975.53;4330194;33;35330;-80
2022/06/27 08:47:14;;;;;;;9.07;4.50;;;;;;;30.06;41.52;99981.44;4322385;33;34613;-80
2022/06/27 08:50:01;;;;;;;5.90;4.00;;;;;;;30.34;41.39;99974.41;4324278;33;34635;-81
2022/06/27 08:52:48;;;;;;;9.05;3.78;;;;;;;30.78;39.02;99974.19;4327111;33;34960;-80
2022/06/27 08:55:35;;;;;;;7.75;3.83;;;;;;;31.18;38.35;99980.47;4332716;33;34451;-79
2022/06/27 08:58:23;;;;;;;5.75;3.60;;;;;;;30.93;39.50;99975.44;4331170;33;35769;-80
2022/06/27 09:01:11;;;;;;;6.68;4.18;;;;;;;31.40;38.55;99969.41;4334959;33;35435;-81
2022/06/27 09:03:58;;;;;;;5.75;3.83;;;;;;;31.39;38.31;99967.81;4334786;33;34450;-79
2022/06/27 09:06:45;;;;;;;5.20;3.50;;;;;;;31.40;39.52;99963.75;4331140;33;35476;-80
2022/06/27 09:09:31;;;;;;;7.25;3.80;;;;;;;31.44;37.67;99957.97;4333737;33;35058;-80
2022/06/27 09:12:18;;;;;;;5.78;3.72;;;;;;;31.83;35.97;99961.75;4335287;32;34591;-80
2022/06/27 09:15:05;;;;;;;4.55;3.65;;;;;;;32.09;35.26;99962.63;4331970;33;33817;-80
2022/06/27 09:18:16;;;;;;;5.90;3.78;;;;;;;31.85;38.12;99959.25;4336083;33;34737;-80
2022/06/27 09:21:10;;;;;;;6.20;3.90;;;;;;;31.84;35.68;99946.34;4336608;33;35051;-80
2022/06/27 09:24:00;;;;;;;6.75;4.03;;;;;;;32.09;35.64;99949.25;4335884;33;34678;-80
2022/06/27 09:26:47;;;;;;;7.68;4.32;;;;;;;32.33;36.04;99948.91;4322981;33;34200;-80
2022/06/27 09:29:33;;;;;;;7.05;3.47;;;;;;;32.25;37.20;99954.81;4331132;33;34442;-80
2022/06/27 09:32:25;;;;;;;6.05;3.25;;;;;;;32.32;36.48;99941.66;4338137;33;34499;-79
2022/06/27 09:35:34;;;;;;;6.82;3.70;;;;;;;32.57;34.81;99947.37;4328208;33;34687;-79
2022/06/27 09:38:21;;;;;;;6.97;3.47;;;;;;;32.56;34.15;99934.44;4321427;33;35036;-80
2022/06/27 09:41:10;;;;;;;7.43;3.42;;;;;;;32.83;34.34;99941.66;4329482;33;36226;-80
2022/06/27 09:44:03;;;;;;;8.80;3.50;;;;;;;33.00;34.17;99945.97;4321132;33;34914;-81
2022/06/27 09:46:57;;;;;;;6.57;4.10;;;;;;;33.23;32.43;99946.81;4334015;33;35632;-79
2022/06/27 09:49:44;;;;;;;5.22;3.33;;;;;;;33.14;32.06;99931.28;4315198;33;34047;-79
2022/06/27 09:52:31;;;;;;;7.90;3.65;;;;;;;33.07;34.28;99928.72;4324619;33;34728;-76
2022/06/27 09:55:20;;;;;;;7.75;3.58;;;;;;;33.35;32.33;99924.03;4320440;33;35872;-80
2022/06/27 09:58:07;;;;;;;6.75;3.50;;;;;;;33.19;31.67;99932.75;4337649;33;35138;-79
2022/06/27 10:00:54;;;;;;;10.38;4.25;;;;;;;33.20;32.72;99925.81;4330404;33;33338;-80
2022/06/27 10:03:41;;;;;;;6.80;3.90;;;;;;;33.61;32.84;99931.69;4329829;33;36464;-80
2022/06/27 10:06:29;;;;;;;7.72;3.80;;;;;;;33.95;32.18;99917.37;4330596;33;34943;-79
2022/06/27 10:09:20;;;;;;;4.72;3.75;;;;;;;33.70;33.04;99929.72;4331784;33;34685;-79
2022/06/27 10:12:19;;;;;;;;;;;;;;;33.87;33.20;99920.94;4343146;33;34194;-80
2022/06/27 10:15:12;;;;;;;5.03;3.42;;;;;;;33.82;31.60;99913.84;4321501;33;34948;-80
2022/06/27 10:18:01;;;;;;;6.72;3.70;;;;;;;33.71;32.12;99914.22;4342866;33;36173;-80
2022/06/27 10:20:51;;;;;;;4.72;3.80;;;;;;;33.95;31.87;99911.69;4333278;33;35615;-79
2022/06/27 10:23:41;;;;;;;6.93;3.90;;;;;;;34.26;31.38;99902.37;4330456;33;34158;-80
2022/06/27 10:26:59;;;;;;;5.05;3.30;;;;;;;34.42;30.43;99907.03;4332600;33;35518;-79
2022/06/27 10:29:45;;;;;;;6.32;3.12;;;;;;;34.09;30.88;99904.69;4320927;33;34468;-80
2022/06/27 10:32:41;;;;;;;5.30;3.17;;;;;;;34.17;30.80;99908.03;4328186;33;35678;-80
2022/06/27 10:35:28;;;;;;;6.37;3.58;;;;;;;34.67;30.06;99906.03;4325313;33;35036;-80
2022/06/27 10:38:26;;;;;;;7.35;3.37;;;;;;;33.85;30.47;99898.69;4317077;33;34548;-81
2022/06/27 10:41:18;;;;;;;6.03;3.35;;;;;;;34.15;31.11;99897.13;4325520;33;34880;-80
2022/06/27 10:44:06;;;;;;;4.97;3.25;;;;;;;34.34;32.54;99892.31;4323450;33;35608;-81
2022/06/27 10:46:53;;;;;;;7.47;3.35;;;;;;;34.76;30.30;99894.66;4321300;33;34799;-80
2022/06/27 10:49:39;;;;;;;4.72;3.40;;;;;;;34.78;29.12;99886.47;4321109;33;34175;-81
2022/06/27 10:52:26;;;;;;;6.87;3.55;;;;;;;34.45;29.10;99892.66;4321294;33;34982;-80
2022/06/27 10:55:29;;;;;;;7.68;3.20;;;;;;;34.96;29.82;99891.38;4332816;33;34954;-80
2022/06/27 10:58:21;;;;;;;8.15;3.47;;;;;;;34.57;30.45;99873.91;4329376;33;34258;-80
2022/06/27 11:01:15;;;;;;;4.62;3.08;;;;;;;34.78;29.09;99880.75;4334915;33;34722;-79
2022/06/27 11:04:01;;;;;;;5.87;3.45;;;;;;;34.86;30.24;99884.88;4330390;32;35973;-78
2022/06/27 11:06:55;;;;;;;5.45;3.40;;;;;;;35.35;28.02;99883.97;4327534;33;34288;-78
2022/06/27 11:09:44;;;;;;;7.25;3.50;;;;;;;35.38;27.49;99876.53;4318033;33;33763;-78
2022/06/27 11:12:34;;;;;;;9.25;4.20;;;;;;;35.45;28.15;99872.56;4332246;33;34662;-79
2022/06/27 11:15:23;;;;;;;7.95;3.80;;;;;;;35.17;28.23;99875.41;4323822;33;36047;-79
2022/06/27 11:18:09;;;;;;;5.47;3.37;;;;;;;35.10;29.99;99864.37;4327424;33;35087;-79
2022/06/27 11:20:57;;;;;;;5.68;3.60;;;;;;;35.81;27.79;99863.16;4341164;33;34124;-79
2022/06/27 11:23:47;;;;;;;13.55;4.03;;;;;;;35.75;26.41;99865.88;4328986;33;35151;-78
2022/06/27 11:26:34;;;;;;;5.22;3.70;;;;;;;34.01;29.79;99861.53;4337881;33;36425;-78
2022/06/27 11:32:28;;;;;;;7.25;3.60;;;;;;;35.34;28.43;99858.78;4317853;33;34131;-79
2022/06/27 11:35:14;;;;;;;5.90;3.40;;;;;;;35.43;27.42;99852.28;4331393;33;34307;-78
2022/06/27 11:38:01;;;;;;;7.87;3.55;;;;;;;35.30;27.29;99836.19;4334693;33;34515;-78
2022/06/27 11:40:58;;;;;;;7.10;3.78;;;;;;;34.58;29.60;99840.56;4326793;33;34396;-75
2022/06/27 11:44:08;;;;;;;8.20;3.70;;;;;;;34.60;29.51;99846.56;4322147;33;34670;-75
2022/06/27 11:47:06;;;;;;;6.12;3.50;;;;;;;35.18;30.10;99851.38;4324432;33;34788;-75
2022/06/27 11:50:06;;;;;;;4.93;3.10;;;;;;;35.36;28.92;99845.66;4319988;33;35273;-75
2022/06/27 11:52:53;;;;;;;6.40;3.37;;;;;;;35.49;27.92;99833.28;4320860;33;35366;-75
2022/06/27 11:55:39;;;;;;;5.75;2.97;;;;;;;35.53;28.10;99842.47;4339216;33;34316;-75
2022/06/27 11:58:26;;;;;;;5.20;3.60;;;;;;;35.65;28.86;99827.25;4322127;33;35621;-75
2022/06/27 12:01:12;;;;;;;4.50;3.12;;;;;;;35.91;27.22;99833.34;4338753;33;36581;-74
2022/06/27 12:04:12;;;;;;;6.03;2.92;;;;;;;36.27;26.58;99825.94;4328965;33;34660;-75
2022/06/27 12:07:08;;;;;;;5.72;3.10;;;;;;;36.29;26.23;99826.25;4336772;33;34159;-75
2022/06/27 12:09:54;;;;;;;7.20;3.28;;;;;;;35.51;26.77;99825.06;4334301;33;34628;-75
2022/06/27 12:12:45;;;;;;;6.03;3.17;;;;;;;36.25;26.55;99823.53;4331767;33;35339;-76
2022/06/27 12:15:32;;;;;;;6.93;3.05;;;;;;;35.04;27.33;99807.22;4320469;33;35495;-76
2022/06/27 12:18:18;;;;;;;6.18;3.05;;;;;;;36.22;29.82;99818.81;4334288;33;34226;-76
2022/06/27 12:21:05;;;;;;;4.55;2.90;;;;;;;36.06;26.15;99816.34;4330954;33;34722;-75
2022/06/27 12:23:51;;;;;;;4.53;3.20;;;;;;;36.86;24.97;99817.63;4330781;33;34939;-75
2022/06/27 12:26:37;;;;;;;4.70;2.90;;;;;;;37.18;26.47;99805.78;4319917;33;34650;-76
2022/06/27 12:29:24;;;;;;;5.80;3.00;;;;;;;37.43;23.56;99798.69;4340612;33;33867;-76
2022/06/27 12:32:10;;;;;;;8.32;3.28;;;;;;;37.35;24.48;99795.44;4322165;33;34375;-75
2022/06/27 12:34:56;;;;;;;12.00;2.80;;;;;;;36.66;23.62;99795.41;4331583;33;35180;-76
2022/06/27 12:37:43;;;;;;;5.72;2.72;;;;;;;36.72;25.19;99801.25;4327531;33;34329;-76
2022/06/27 12:40:30;;;;;;;6.62;2.78;;;;;;;36.84;24.05;99797.31;4330827;33;33783;-76
2022/06/27 12:43:21;;;;;;;4.78;2.62;;;;;;;36.92;23.83;99803.44;4342723;33;33601;-76
2022/06/27 12:46:07;;;;;;;5.93;2.78;;;;;;;37.35;22.91;99793.38;4327583;33;36276;-76
2022/06/27 12:48:57;;;;;;;5.97;3.40;;;;;;;37.33;24.15;99789.44;4330413;33;34426;-76
2022/06/27 12:51:43;;;;;;;5.68;2.70;;;;;;;37.68;23.27;99803.81;4331488;33;35093;-76
2022/06/27 12:54:29;;;;;;;4.35;2.70;;;;;;;36.01;24.07;99797.03;4338257;33;35436;-75
2022/06/27 12:57:16;;;;;;;3.80;2.60;;;;;;;37.13;23.25;99798.69;4343187;33;36030;-76
2022/06/27 13:00:04;;;;;;;5.15;2.83;;;;;;;37.35;22.90;99796.22;4343570;33;34270;-76
2022/06/27 13:02:51;;;;;;;7.00;3.22;;;;;;;37.45;22.79;99790.41;4332410;33;33836;-76
2022/06/27 13:05:45;;;;;;;5.03;2.70;;;;;;;37.98;22.89;99792.38;4333321;33;34661;-76
2022/06/27 13:08:31;;;;;;;3.05;2.53;;;;;;;35.62;25.48;99788.34;4332406;33;34990;-75
2022/06/27 13:11:18;;;;;;;7.47;3.10;;;;;;;36.86;24.46;99791.12;4335955;33;34772;-76
2022/06/27 13:14:04;;;;;;;5.43;2.95;;;;;;;36.86;24.06;99797.63;4333008;32;33804;-76
2022/06/27 13:16:51;;;;;;;6.45;3.12;;;;;;;36.90;22.88;99786.00;4329077;33;34679;-76